Time;durP1;ratioP1;P1;durP2;ratioP2;P2;SDS_P1;SDS_P2;PMS_P1;PMS_P2;Temp;Humidity;BMP_temperature;BMP_pressure;BME280_temperature;BME280_humidity;BME280_pressure;Samples;Min_cycle;Max_cycle;Signal;HPM_P1;HPM_P2
2021/11/09 00:02:22;;;;;;;9.45;6.30;;;2.20;99.90;;;;;;1967665;71;21132;-74
2021/11/09 00:04:56;;;;;;;13.60;6.92;;;2.30;99.90;;;;;;1967280;71;21109;-74
2021/11/09 00:07:25;;;;;;;14.18;7.25;;;2.20;99.90;;;;;;1969890;72;21134;-74
2021/11/09 00:10:07;;;;;;;28.38;8.30;;;2.20;99.90;;;;;;1991605;70;21491;-73
2021/11/09 00:12:27;;;;;;;16.42;7.42;;;2.20;99.90;;;;;;1970357;70;21080;-74
2021/11/09 00:14:56;;;;;;;19.32;7.45;;;2.20;99.90;;;;;;1989295;70;21063;-73
2021/11/09 00:17:22;;;;;;;13.20;7.05;;;2.10;99.90;;;;;;1975693;70;21032;-75
2021/11/09 00:19:48;;;;;;;13.25;6.08;;;2.00;99.90;;;;;;1970989;70;21047;-73
2021/11/09 00:22:15;;;;;;;18.75;7.37;;;2.10;99.90;;;;;;1980069;71;21141;-74
2021/11/09 00:24:41;;;;;;;9.35;6.60;;;2.10;99.90;;;;;;1976017;72;21050;-73
2021/11/09 00:27:07;;;;;;;13.90;6.75;;;2.00;99.90;;;;;;1987921;70;21128;-74
2021/11/09 00:29:33;;;;;;;12.73;7.03;;;2.00;99.90;;;;;;1974770;72;21029;-72
2021/11/09 00:31:59;;;;;;;10.18;6.33;;;1.90;99.90;;;;;;1971654;72;21047;-75
2021/11/09 00:34:25;;;;;;;40.10;8.00;;;1.90;99.90;;;;;;1984009;71;21139;-74
2021/11/09 00:36:51;;;;;;;18.77;6.92;;;2.00;99.90;;;;;;1987323;71;21116;-73
2021/11/09 00:39:17;;;;;;;15.70;7.12;;;1.90;99.90;;;;;;1979317;70;21193;-74
2021/11/09 00:41:44;;;;;;;13.68;7.08;;;1.80;99.90;;;;;;1982490;72;21019;-73
2021/11/09 00:44:10;;;;;;;12.15;6.40;;;1.80;99.90;;;;;;1983524;71;21344;-72
2021/11/09 00:46:36;;;;;;;13.48;7.45;;;1.80;99.90;;;;;;1963515;71;21101;-74
2021/11/09 00:49:02;;;;;;;12.28;6.80;;;1.80;99.90;;;;;;1977823;70;21132;-74
2021/11/09 00:51:28;;;;;;;15.55;7.15;;;1.80;99.90;;;;;;1967459;71;21129;-74
2021/11/09 00:53:54;;;;;;;15.23;7.58;;;1.80;99.90;;;;;;1962528;72;21460;-75
2021/11/09 00:56:20;;;;;;;20.10;7.72;;;1.70;99.90;;;;;;1983974;72;21020;-74
2021/11/09 00:58:46;;;;;;;14.73;6.60;;;1.70;99.90;;;;;;1960434;71;21110;-75
2021/11/09 01:01:13;;;;;;;11.40;6.55;;;1.70;99.90;;;;;;1979438;71;21059;-76
2021/11/09 01:03:39;;;;;;;10.88;7.12;;;1.80;99.90;;;;;;1988059;70;21110;-73
2021/11/09 01:06:05;;;;;;;10.30;7.25;;;1.80;99.90;;;;;;1982390;72;21067;-73
2021/11/09 01:08:31;;;;;;;13.00;7.87;;;1.90;99.90;;;;;;1983417;70;21043;-76
2021/11/09 01:10:57;;;;;;;16.30;7.40;;;1.90;99.90;;;;;;1992154;72;21031;-72
2021/11/09 01:13:23;;;;;;;25.12;8.78;;;2.00;99.90;;;;;;1984480;71;21043;-73
2021/11/09 01:15:50;;;;;;;13.32;7.72;;;2.00;99.90;;;;;;1973288;71;21055;-75
2021/11/09 01:18:16;;;;;;;15.23;6.95;;;2.10;99.90;;;;;;1980592;72;21047;-75
2021/11/09 01:20:42;;;;;;;16.12;6.90;;;2.10;99.90;;;;;;1972955;72;21071;-74
2021/11/09 01:23:09;;;;;;;17.30;7.90;;;2.10;99.90;;;;;;1985324;71;21076;-75
2021/11/09 01:25:35;;;;;;;14.93;7.92;;;2.10;99.90;;;;;;1974601;71;21129;-74
2021/11/09 01:28:01;;;;;;;14.38;7.70;;;2.10;99.90;;;;;;1978192;71;21055;-75
2021/11/09 01:30:27;;;;;;;20.85;7.58;;;2.20;99.90;;;;;;1967828;71;21051;-73
2021/11/09 01:32:53;;;;;;;20.43;8.38;;;2.20;99.90;;;;;;1971112;71;21051;-75
2021/11/09 01:35:19;;;;;;;10.72;6.78;;;2.30;99.90;;;;;;1973735;71;21076;-74
2021/11/09 01:37:46;;;;;;;13.85;7.60;;;2.30;99.90;;;;;;1968476;71;21036;-73
2021/11/09 01:40:12;;;;;;;24.57;8.13;;;2.30;99.90;;;;;;1967260;72;21045;-73
2021/11/09 01:42:38;;;;;;;19.65;7.37;;;2.30;99.90;;;;;;1986969;71;21141;-72
2021/11/09 01:45:04;;;;;;;16.90;7.55;;;2.30;99.90;;;;;;1993650;71;21052;-73
2021/11/09 01:47:30;;;;;;;12.60;6.22;;;2.30;99.90;;;;;;1993421;70;21112;-75
2021/11/09 01:49:56;;;;;;;17.20;7.62;;;2.30;99.90;;;;;;1988302;71;21068;-75
2021/11/09 01:52:23;;;;;;;13.75;7.42;;;2.40;99.90;;;;;;1967496;71;21450;-75
2021/11/09 01:54:49;;;;;;;15.80;7.97;;;2.30;99.90;;;;;;1978304;72;22831;-75
2021/11/09 01:57:15;;;;;;;16.27;8.28;;;2.40;99.90;;;;;;1987547;71;21071;-76
2021/11/09 01:59:41;;;;;;;14.25;7.80;;;2.30;99.90;;;;;;1978301;71;21065;-75
2021/11/09 02:02:07;;;;;;;14.53;7.53;;;2.40;99.90;;;;;;1962222;71;21126;-76
2021/11/09 02:04:34;;;;;;;13.45;7.15;;;2.40;99.90;;;;;;1960922;70;21605;-73
2021/11/09 02:07:00;;;;;;;16.42;7.92;;;2.50;99.90;;;;;;1967381;71;21555;-73
2021/11/09 02:09:27;;;;;;;12.95;7.58;;;2.50;99.90;;;;;;1982831;72;21476;-75
2021/11/09 02:11:53;;;;;;;18.82;8.35;;;2.60;99.90;;;;;;1973226;71;21105;-76
2021/11/09 02:14:19;;;;;;;17.90;8.03;;;2.50;99.90;;;;;;1965941;71;21149;-75
2021/11/09 02:16:45;;;;;;;14.38;7.55;;;2.40;99.90;;;;;;1972561;71;21223;-75
2021/11/09 02:19:11;;;;;;;10.68;7.30;;;2.40;99.90;;;;;;1978192;71;21180;-74
2021/11/09 02:21:37;;;;;;;17.40;8.90;;;2.50;99.90;;;;;;1977782;71;21067;-75
2021/11/09 02:24:03;;;;;;;16.93;7.72;;;2.40;99.90;;;;;;1983337;72;21490;-75
2021/11/09 02:26:30;;;;;;;18.37;9.35;;;2.50;99.90;;;;;;1983403;72;21443;-75
2021/11/09 02:28:56;;;;;;;13.98;7.78;;;2.50;99.90;;;;;;1981298;71;21549;-74
2021/11/09 02:31:22;;;;;;;14.80;8.08;;;2.60;99.90;;;;;;1974694;70;21068;-75
2021/11/09 02:33:48;;;;;;;23.85;8.03;;;2.60;99.90;;;;;;1986658;72;21205;-75
2021/11/09 02:36:15;;;;;;;12.75;7.70;;;2.70;99.90;;;;;;1966049;70;21483;-75
2021/11/09 02:38:41;;;;;;;14.87;7.87;;;2.70;99.90;;;;;;1963921;71;21486;-73
2021/11/09 02:41:07;;;;;;;17.27;8.05;;;2.70;99.90;;;;;;1979853;70;21035;-75
2021/11/09 02:43:33;;;;;;;17.02;8.13;;;2.70;99.90;;;;;;1982339;70;21121;-74
2021/11/09 02:48:40;;;;;;;14.13;7.00;;;2.70;99.90;;;;;;1995602;71;21104;-73
2021/11/09 02:51:09;;;;;;;21.77;9.00;;;2.80;99.90;;;;;;1977426;71;21055;-75
2021/11/09 02:56:13;;;;;;;12.13;7.50;;;2.70;99.90;;;;;;1975422;71;21164;-75
2021/11/09 02:58:46;;;;;;;14.20;7.78;;;2.70;99.90;;;;;;1981153;70;21170;-75
2021/11/09 03:01:11;;;;;;;11.55;7.55;;;2.70;99.90;;;;;;1964032;71;21102;-74
2021/11/09 03:03:42;;;;;;;13.35;7.78;;;2.80;99.90;;;;;;1978250;70;21070;-72
2021/11/09 03:09:11;;;;;;;11.65;7.22;;;2.70;99.90;;;;;;1973186;72;21609;-73
2021/11/09 03:11:34;;;;;;;12.03;7.00;;;2.60;99.90;;;;;;1971948;72;21104;-74
2021/11/09 03:14:00;;;;;;;11.83;7.17;;;2.50;99.90;;;;;;1970561;70;21205;-73
2021/11/09 03:16:30;;;;;;;13.28;7.67;;;2.50;99.90;;;;;;1983325;71;21132;-74
2021/11/09 03:19:13;;;;;;;10.88;6.92;;;2.40;99.90;;;;;;1976625;70;21225;-74
2021/11/09 03:40:37;;;;;;;15.93;7.33;;;1.80;99.90;;;;;;1965858;71;21126;-73
2021/11/09 03:45:45;;;;;;;10.60;7.17;;;1.70;99.90;;;;;;1972366;71;21085;-73
2021/11/09 03:48:15;;;;;;;22.40;9.08;;;1.60;99.90;;;;;;1976297;72;21531;-73
2021/11/09 03:50:39;;;;;;;18.70;8.18;;;1.60;99.90;;;;;;1967838;70;21092;-74
2021/11/09 03:53:12;;;;;;;13.22;8.08;;;1.50;99.90;;;;;;1971619;72;21208;-73
2021/11/09 04:00:45;;;;;;;15.95;8.55;;;1.40;99.90;;;;;;1989927;72;21063;-72
2021/11/09 04:04:09;;;;;;;11.50;7.50;;;1.40;99.90;;;;;;1972350;71;21159;-74
2021/11/09 04:05:39;;;;;;;14.80;8.00;;;1.30;99.90;;;;;;1965133;72;21072;-73
2021/11/09 04:08:06;;;;;;;14.40;8.70;;;1.30;99.90;;;;;;1986656;72;21485;-72
2021/11/09 04:18:28;;;;;;;13.50;9.05;;;1.30;99.90;;;;;;1967682;71;21158;-73
2021/11/09 04:31:29;;;;;;;15.35;9.03;;;1.00;99.90;;;;;;1969886;72;21064;-74
2021/11/09 04:37:45;;;;;;;15.50;8.48;;;1.00;99.90;;;;;;1987823;70;21051;-73
2021/11/09 05:09:12;;;;;;;16.32;9.80;;;0.50;99.90;;;;;;1978123;71;21126;-74
2021/11/09 05:11:41;;;;;;;20.82;10.18;;;0.50;99.90;;;;;;1970014;71;21415;-74
2021/11/09 05:14:04;;;;;;;19.75;10.00;;;0.50;99.90;;;;;;1977695;71;21143;-73
2021/11/09 05:16:30;;;;;;;18.48;9.33;;;0.50;99.90;;;;;;1962271;71;21052;-73
2021/11/09 05:18:57;;;;;;;14.95;10.40;;;0.40;99.90;;;;;;1987741;71;21058;-73
2021/11/09 05:21:23;;;;;;;19.23;9.38;;;0.50;99.90;;;;;;1983021;71;21241;-74
2021/11/09 05:23:49;;;;;;;16.48;9.85;;;0.40;99.90;;;;;;1971754;71;21059;-73
2021/11/09 05:26:15;;;;;;;15.28;8.90;;;0.40;99.90;;;;;;1987859;71;21101;-73
2021/11/09 05:28:41;;;;;;;20.72;10.05;;;0.40;99.90;;;;;;1987875;71;21035;-76
2021/11/09 05:31:07;;;;;;;18.35;10.18;;;0.30;99.90;;;;;;1972600;70;21124;-74
2021/11/09 05:33:34;;;;;;;30.27;13.75;;;0.30;99.90;;;;;;1993447;71;21153;-73
2021/11/09 05:36:02;;;;;;;24.27;14.65;;;0.30;99.90;;;;;;1975547;71;21074;-73
2021/11/09 05:38:43;;;;;;;28.60;13.35;;;0.20;99.90;;;;;;1984950;72;21442;-74
2021/11/09 05:41:00;;;;;;;34.63;14.50;;;0.10;99.90;;;;;;1978893;70;21096;-74
2021/11/09 05:43:24;;;;;;;42.83;14.93;;;0.10;99.90;;;;;;1977086;70;21137;-74
2021/11/09 05:45:50;;;;;;;71.82;15.10;;;0.00;99.90;;;;;;1965042;72;21067;-76
2021/11/09 05:48:16;;;;;;;51.42;14.03;;;0.00;99.90;;;;;;1977411;71;21019;-76
2021/11/09 05:50:42;;;;;;;24.82;13.65;;;0.00;99.90;;;;;;1973393;72;21153;-74
2021/11/09 05:53:08;;;;;;;32.53;14.40;;;0.00;99.90;;;;;;1983017;71;21506;-74
2021/11/09 05:55:34;;;;;;;27.90;13.22;;;0.10;99.90;;;;;;1976476;72;21427;-76
2021/11/09 05:58:03;;;;;;;26.33;12.98;;;0.00;99.90;;;;;;1974606;72;21133;-76
2021/11/09 06:00:28;;;;;;;56.45;13.45;;;0.10;99.90;;;;;;1983208;72;21128;-74
2021/11/09 06:02:54;;;;;;;33.98;13.85;;;0.10;99.90;;;;;;1968046;72;21170;-74
2021/11/09 06:05:21;;;;;;;23.45;12.80;;;0.10;99.90;;;;;;1987318;70;21131;-74
2021/11/09 06:07:47;;;;;;;26.48;14.18;;;0.20;99.90;;;;;;1978267;70;21047;-75
2021/11/09 06:10:13;;;;;;;26.42;14.23;;;0.30;99.90;;;;;;1993482;70;21023;-74
2021/11/09 06:12:39;;;;;;;85.47;15.23;;;0.30;99.90;;;;;;1965211;71;21023;-74
2021/11/09 06:15:05;;;;;;;26.17;15.98;;;0.30;99.90;;;;;;1982661;71;21196;-77
2021/11/09 06:17:31;;;;;;;22.75;14.13;;;0.30;99.90;;;;;;1992944;71;21058;-77
2021/11/09 06:19:57;;;;;;;37.00;12.78;;;0.30;99.90;;;;;;1972033;71;21063;-77
2021/11/09 06:22:24;;;;;;;26.40;14.90;;;0.20;99.90;;;;;;1974399;71;21109;-76
2021/11/09 06:24:50;;;;;;;22.27;12.95;;;0.30;99.90;;;;;;1974229;71;21135;-76
2021/11/09 06:27:17;;;;;;;44.93;13.68;;;0.30;99.90;;;;;;1977423;71;21059;-76
2021/11/09 06:29:43;;;;;;;26.05;12.40;;;0.30;99.90;;;;;;1993493;71;21070;-76
2021/11/09 06:32:09;;;;;;;21.02;13.05;;;0.50;99.90;;;;;;1982671;71;21535;-76
2021/11/09 06:34:35;;;;;;;24.87;12.85;;;0.50;99.90;;;;;;1987687;71;21440;-76
2021/11/09 06:37:01;;;;;;;25.17;13.25;;;0.50;99.90;;;;;;1982102;71;21439;-74
2021/11/09 06:39:28;;;;;;;20.05;12.47;;;0.60;99.90;;;;;;1975146;71;21811;-74
2021/11/09 06:41:54;;;;;;;27.30;12.82;;;0.60;99.90;;;;;;1978425;71;21430;-78
2021/11/09 06:44:20;;;;;;;33.40;12.47;;;0.70;99.90;;;;;;1962523;72;21060;-76
2021/11/09 06:46:46;;;;;;;19.70;13.18;;;0.70;99.90;;;;;;1971068;71;21127;-75
2021/11/09 06:49:12;;;;;;;21.55;12.93;;;0.70;99.90;;;;;;1982131;71;21037;-74
2021/11/09 06:51:39;;;;;;;20.88;12.03;;;0.70;99.90;;;;;;1969106;70;21115;-78
2021/11/09 06:54:05;;;;;;;26.87;12.78;;;0.70;99.90;;;;;;1966531;71;21141;-75
2021/11/09 06:56:31;;;;;;;17.27;11.63;;;0.80;99.90;;;;;;1974025;71;21060;-74
2021/11/09 07:01:25;;;;;;;22.00;12.80;;;0.70;99.90;;;;;;1890230;71;21133;-73
2021/11/09 07:03:51;;;;;;;44.08;13.53;;;0.80;99.90;;;;;;1982706;71;21125;-72
2021/11/09 07:06:17;;;;;;;35.95;12.63;;;0.70;99.90;;;;;;1993391;70;21115;-74
2021/11/09 07:08:43;;;;;;;41.58;12.85;;;0.70;99.90;;;;;;1981357;72;21045;-74
2021/11/09 07:11:09;;;;;;;22.77;12.47;;;0.60;99.90;;;;;;1983084;71;21133;-75
2021/11/09 07:13:35;;;;;;;21.62;12.37;;;0.60;99.90;;;;;;1977327;70;21050;-74
2021/11/09 07:16:03;;;;;;;41.65;12.98;;;0.70;99.90;;;;;;1975413;71;21211;-75
2021/11/09 07:18:29;;;;;;;34.33;13.55;;;0.70;99.90;;;;;;1971960;71;21068;-74
2021/11/09 07:20:55;;;;;;;26.73;13.43;;;0.70;99.90;;;;;;1992057;71;21101;-74
2021/11/09 07:23:21;;;;;;;26.40;13.30;;;0.70;99.90;;;;;;1971487;71;21125;-77
2021/11/09 07:25:48;;;;;;;40.88;12.78;;;0.80;99.90;;;;;;1972714;71;21115;-75
2021/11/09 07:28:14;;;;;;;31.50;13.95;;;0.80;99.90;;;;;;1971593;71;21068;-73
2021/11/09 07:30:58;;;;;;;47.85;12.98;;;0.70;99.90;;;;;;1962872;72;21064;-75
2021/11/09 07:33:23;;;;;;;29.57;12.07;;;0.70;99.90;;;;;;1963730;72;21084;-75
2021/11/09 07:35:49;;;;;;;42.55;13.25;;;0.70;99.90;;;;;;1971663;71;21052;-74
2021/11/09 07:38:17;;;;;;;31.87;13.90;;;0.70;99.90;;;;;;1967884;71;21063;-75
2021/11/09 07:40:43;;;;;;;36.60;14.53;;;0.70;99.90;;;;;;1980119;70;21097;-75
2021/11/09 07:43:12;;;;;;;37.58;21.70;;;0.70;99.90;;;;;;1988939;71;21151;-75
2021/11/09 07:45:37;;;;;;;35.55;13.80;;;0.80;99.90;;;;;;1981229;70;21152;-75
2021/11/09 07:48:04;;;;;;;35.00;13.85;;;0.80;99.90;;;;;;1977546;70;21494;-76
2021/11/09 07:50:30;;;;;;;28.70;14.05;;;0.70;99.90;;;;;;1971984;71;21487;-75
2021/11/09 07:53:02;;;;;;;40.78;15.48;;;0.70;99.90;;;;;;1980611;71;21031;-75
2021/11/09 07:55:28;;;;;;;30.57;15.70;;;0.60;99.90;;;;;;1987794;71;21132;-75
2021/11/09 07:57:58;;;;;;;41.15;15.95;;;0.60;99.90;;;;;;1973325;71;21059;-75
2021/11/09 08:00:24;;;;;;;28.27;14.98;;;0.70;99.90;;;;;;1993319;70;21031;-74
2021/11/09 08:03:07;;;;;;;23.22;14.98;;;0.80;99.90;;;;;;1962482;71;21116;-74
2021/11/09 08:05:56;;;;;;;34.55;15.23;;;0.80;99.90;;;;;;1982233;70;21443;-76
2021/11/09 08:08:15;;;;;;;37.03;14.25;;;0.70;99.90;;;;;;1956107;71;21063;-75
2021/11/09 08:10:37;;;;;;;43.73;15.85;;;0.70;99.90;;;;;;1970798;71;21097;-74
2021/11/09 08:13:03;;;;;;;27.62;15.20;;;0.80;99.90;;;;;;1967240;72;21041;-77
2021/11/09 08:15:29;;;;;;;30.12;16.57;;;0.90;99.90;;;;;;1969211;72;21055;-75
2021/11/09 08:17:55;;;;;;;29.32;16.95;;;1.00;99.90;;;;;;1986908;72;21063;-74
2021/11/09 08:20:22;;;;;;;56.70;18.80;;;1.20;99.90;;;;;;1963016;71;21489;-74
2021/11/09 08:22:48;;;;;;;33.28;16.73;;;1.40;99.90;;;;;;1977878;71;21151;-74
2021/11/09 08:25:14;;;;;;;39.55;18.20;;;1.40;99.90;;;;;;1972468;71;21085;-74
2021/11/09 08:27:40;;;;;;;30.10;17.67;;;1.30;99.90;;;;;;1969956;72;21116;-74
2021/11/09 08:30:06;;;;;;;29.15;17.95;;;1.50;99.90;;;;;;1967568;71;21126;-74
2021/11/09 08:32:33;;;;;;;27.95;16.70;;;1.70;99.90;;;;;;1974192;71;21124;-75
2021/11/09 08:35:00;;;;;;;27.42;16.75;;;2.10;99.90;;;;;;1967155;70;21193;-74
2021/11/09 08:37:26;;;;;;;27.37;15.10;;;2.40;99.90;;;;;;1991416;71;21050;-73
2021/11/09 08:39:52;;;;;;;23.45;14.05;;;2.70;99.90;;;;;;1983173;72;21128;-74
2021/11/09 08:42:28;;;;;;;29.02;15.00;;;2.80;99.90;;;;;;1973121;71;21090;-74
2021/11/09 08:45:14;;;;;;;24.40;13.22;;;2.90;99.90;;;;;;1966328;70;21093;-74
2021/11/09 08:47:38;;;;;;;20.77;14.33;;;3.00;99.90;;;;;;1990614;70;21386;-74
2021/11/09 08:50:03;;;;;;;26.55;14.05;;;3.10;99.90;;;;;;1982189;71;21159;-73
2021/11/09 08:52:31;;;;;;;20.25;12.33;;;3.30;99.90;;;;;;1976165;71;21055;-73
2021/11/09 09:05:28;;;;;;;29.40;12.25;;;4.10;99.90;;;;;;1968949;71;21497;-75
2021/11/09 09:07:54;;;;;;;20.85;11.03;;;4.60;99.90;;;;;;1967529;71;21487;-75
2021/11/09 09:10:20;;;;;;;24.98;11.20;;;5.00;99.90;;;;;;1985260;70;21450;-75
2021/11/09 09:12:47;;;;;;;28.05;11.60;;;5.40;99.90;;;;;;1971117;70;21048;-74
2021/11/09 09:15:13;;;;;;;27.00;11.10;;;5.50;99.90;;;;;;1990698;70;21058;-74
2021/11/09 09:17:39;;;;;;;23.77;11.55;;;5.90;99.90;;;;;;1968171;71;21185;-74
2021/11/09 09:20:27;;;;;;;22.50;10.75;;;5.60;99.90;;;;;;1977667;70;21227;-74
2021/11/09 09:22:43;;;;;;;22.22;12.18;;;6.00;99.90;;;;;;1981827;71;21419;-74
2021/11/09 09:25:15;;;;;;;22.48;10.53;;;6.10;99.90;;;;;;1986740;71;21085;-74
2021/11/09 09:28:10;;;;;;;26.23;11.48;;;6.40;99.90;;;;;;1981345;70;21174;-74
2021/11/09 09:30:34;;;;;;;21.17;10.95;;;6.30;99.90;;;;;;1973803;71;21463;-73
2021/11/09 09:54:51;;;;;;;19.05;9.63;;;8.00;99.90;;;;;;1971333;70;21356;-75
2021/11/09 09:57:11;;;;;;;18.55;9.80;;;8.60;99.90;;;;;;1970044;71;21135;-76
2021/11/09 09:59:38;;;;;;;24.40;9.23;;;8.60;99.90;;;;;;1977173;71;21020;-75
2021/11/09 10:02:04;;;;;;;18.27;9.58;;;8.90;99.90;;;;;;1978304;72;21028;-75
2021/11/09 10:04:30;;;;;;;14.83;8.35;;;9.20;99.90;;;;;;1978044;70;21039;-76
2021/11/09 10:06:56;;;;;;;18.73;9.53;;;9.30;99.90;;;;;;1993464;71;21498;-75
2021/11/09 10:09:22;;;;;;;17.70;8.93;;;9.60;99.90;;;;;;1972751;71;21454;-75
2021/11/09 10:11:48;;;;;;;16.97;8.55;;;9.90;99.90;;;;;;1974992;71;21523;-75
2021/11/09 10:14:14;;;;;;;14.00;8.15;;;9.80;99.90;;;;;;1983023;71;21019;-76
2021/11/09 10:16:41;;;;;;;15.53;8.85;;;10.30;99.90;;;;;;1966700;71;21064;-76
2021/11/09 10:19:09;;;;;;;12.73;7.75;;;10.70;99.90;;;;;;1971109;70;21051;-76
2021/11/09 10:21:35;;;;;;;16.67;7.62;;;10.90;99.90;;;;;;1993429;70;21055;-74
2021/11/09 10:24:01;;;;;;;17.65;7.60;;;11.20;99.90;;;;;;1987745;71;21138;-74
2021/11/09 10:26:28;;;;;;;13.80;7.20;;;10.90;99.90;;;;;;1978267;72;21067;-75
2021/11/09 10:28:54;;;;;;;12.33;7.05;;;11.20;99.90;;;;;;1973029;70;21052;-73
2021/11/09 10:31:20;;;;;;;18.62;7.70;;;11.50;99.90;;;;;;1982607;72;21028;-73
2021/11/09 10:33:50;;;;;;;15.43;7.15;;;11.50;99.90;;;;;;1960882;71;21122;-75
2021/11/09 10:36:14;;;;;;;14.40;6.37;;;12.00;99.90;;;;;;1987159;70;21070;-74
2021/11/09 10:38:40;;;;;;;12.55;5.55;;;11.90;99.90;;;;;;1987007;71;21111;-74
2021/11/09 10:41:06;;;;;;;9.35;4.90;;;12.00;99.90;;;;;;1968592;70;21055;-74
2021/11/09 10:43:33;;;;;;;14.58;5.28;;;12.80;99.90;;;;;;1976518;71;21072;-74
2021/11/09 10:46:00;;;;;;;11.83;4.62;;;12.80;99.90;;;;;;1990230;72;21482;-74
2021/11/09 10:48:27;;;;;;;8.68;4.33;;;12.40;99.90;;;;;;1982299;70;21054;-74
2021/11/09 10:50:55;;;;;;;7.92;3.75;;;12.60;99.90;;;;;;1993516;71;21055;-74
2021/11/09 10:56:02;;;;;;;11.18;3.77;;;12.40;99.90;;;;;;1982869;70;21035;-76
2021/11/09 10:58:28;;;;;;;8.38;2.55;;;13.00;99.90;;;;;;1992246;70;21114;-75
2021/11/09 11:06:03;;;;;;;8.90;2.20;;;12.80;99.90;;;;;;1977993;71;21109;-76
2021/11/09 11:08:29;;;;;;;5.72;2.22;;;12.80;99.90;;;;;;1967529;72;21138;-76
2021/11/09 11:10:55;;;;;;;4.15;2.08;;;12.80;99.90;;;;;;1983048;70;21128;-75
2021/11/09 11:13:21;;;;;;;12.63;2.50;;;13.20;99.90;;;;;;1963320;71;21040;-76
2021/11/09 11:15:47;;;;;;;6.40;2.10;;;12.90;99.90;;;;;;1981860;70;21145;-73
2021/11/09 11:18:13;;;;;;;6.53;2.37;;;12.80;99.90;;;;;;1988652;72;21054;-74
2021/11/09 11:20:40;;;;;;;5.50;2.08;;;13.10;99.90;;;;;;1982678;70;21051;-75
2021/11/09 11:23:07;;;;;;;7.20;1.95;;;13.20;99.90;;;;;;1969883;72;21039;-74
2021/11/09 11:25:33;;;;;;;5.15;2.17;;;13.50;99.90;;;;;;1991036;71;21124;-74
2021/11/09 11:28:00;;;;;;;9.53;2.27;;;13.00;99.90;;;;;;1963091;71;21068;-74
2021/11/09 11:30:26;;;;;;;8.65;2.35;;;13.10;99.90;;;;;;1975374;70;21054;-75
2021/11/09 11:32:52;;;;;;;10.75;2.20;;;13.30;99.90;;;;;;1978726;72;21027;-75
2021/11/09 11:35:19;;;;;;;6.65;2.17;;;13.30;99.90;;;;;;1977621;71;21064;-76
2021/11/09 11:37:45;;;;;;;5.60;2.22;;;13.30;99.90;;;;;;1977710;70;21120;-76
2021/11/09 11:40:12;;;;;;;7.05;2.08;;;13.30;99.90;;;;;;1965989;70;21050;-76
2021/11/09 11:42:38;;;;;;;6.12;1.92;;;13.40;99.90;;;;;;1973189;72;21031;-78
2021/11/09 11:45:04;;;;;;;9.43;1.87;;;13.90;99.90;;;;;;1972267;71;21170;-77
2021/11/09 11:47:30;;;;;;;2.55;1.62;;;14.00;99.90;;;;;;1982716;71;21059;-76
2021/11/09 11:49:59;;;;;;;7.47;2.27;;;13.60;99.90;;;;;;1993447;71;21054;-83
2021/11/09 11:52:27;;;;;;;6.25;1.98;;;13.70;99.90;;;;;;1967132;70;21158;-83
2021/11/09 11:54:56;;;;;;;7.40;2.10;;;14.30;99.90;;;;;;1972262;71;21056;-83
2021/11/09 11:57:20;;;;;;;5.37;1.90;;;14.60;99.90;;;;;;1983431;70;21201;-82
2021/11/09 11:59:51;;;;;;;9.73;1.72;;;14.40;99.90;;;;;;1965235;70;21142;-83
2021/11/09 12:02:17;;;;;;;6.37;2.30;;;14.80;99.90;;;;;;1963202;70;21087;-81
2021/11/09 12:04:49;;;;;;;4.05;1.92;;;15.20;99.90;;;;;;1965000;70;21141;-83
2021/11/09 12:07:15;;;;;;;6.87;2.20;;;15.00;99.90;;;;;;1967853;71;21476;-81
2021/11/09 12:09:41;;;;;;;4.17;1.90;;;14.60;99.90;;;;;;1962889;71;21119;-81
2021/11/09 12:12:07;;;;;;;5.10;2.10;;;15.20;99.90;;;;;;1969433;70;21060;-74
2021/11/09 12:14:33;;;;;;;7.15;1.98;;;15.00;99.90;;;;;;1987728;70;21133;-78
2021/11/09 12:17:03;;;;;;;5.53;1.87;;;15.30;99.90;;;;;;1984148;71;21186;-81
2021/11/09 12:19:27;;;;;;;7.62;2.33;;;15.20;99.90;;;;;;1962633;70;21120;-76
2021/11/09 12:21:53;;;;;;;6.28;2.12;;;15.10;99.90;;;;;;1987108;71;21165;-75
2021/11/09 12:24:19;;;;;;;4.70;1.95;;;14.50;99.90;;;;;;1993430;72;21051;-76
2021/11/09 12:26:46;;;;;;;7.03;2.17;;;14.40;99.90;;;;;;1977963;72;21041;-76
2021/11/09 12:29:12;;;;;;;5.67;2.17;;;14.10;99.90;;;;;;1977443;71;21036;-75
2021/11/09 12:31:38;;;;;;;4.03;2.00;;;14.40;99.90;;;;;;1978023;70;21108;-75
2021/11/09 12:34:04;;;;;;;6.45;2.40;;;14.10;99.90;;;;;;1982408;71;21126;-75
2021/11/09 12:36:31;;;;;;;5.70;1.85;;;14.10;99.90;;;;;;1977960;70;21142;-76
2021/11/09 12:38:57;;;;;;;5.12;2.22;;;14.30;99.90;;;;;;1978317;70;21069;-76
2021/11/09 12:41:23;;;;;;;6.60;2.10;;;14.50;99.90;;;;;;1993166;71;21055;-76
2021/11/09 12:43:50;;;;;;;4.10;2.00;;;14.60;99.90;;;;;;1986723;71;21510;-75
2021/11/09 12:46:27;;;;;;;11.78;2.35;;;14.80;99.90;;;;;;1990067;70;21062;-74
2021/11/09 12:48:53;;;;;;;4.90;2.20;;;15.00;99.90;;;;;;1966193;72;21163;-75
2021/11/09 12:51:11;;;;;;;3.87;1.87;;;14.90;99.90;;;;;;1958316;72;21114;-74
2021/11/09 12:53:37;;;;;;;6.70;2.30;;;14.80;99.90;;;;;;1976715;72;21563;-74
2021/11/09 12:56:07;;;;;;;7.25;2.08;;;14.60;99.90;;;;;;1974786;71;21443;-75
2021/11/09 12:58:34;;;;;;;7.65;2.20;;;14.40;99.90;;;;;;1961414;71;21178;-74
2021/11/09 13:00:59;;;;;;;8.00;2.33;;;14.60;99.90;;;;;;1981229;71;21078;-74
2021/11/09 13:03:30;;;;;;;7.55;2.17;;;14.50;99.90;;;;;;1977676;70;21166;-74
2021/11/09 13:06:01;;;;;;;6.37;2.30;;;14.40;99.90;;;;;;1961703;72;21096;-75
2021/11/09 13:08:30;;;;;;;4.60;2.00;;;14.20;99.90;;;;;;1987146;72;21054;-74
2021/11/09 13:10:49;;;;;;;8.60;2.37;;;14.40;99.90;;;;;;1977519;71;21195;-74
2021/11/09 13:13:19;;;;;;;5.03;2.05;;;14.50;99.90;;;;;;1982600;71;21076;-75
2021/11/09 13:15:43;;;;;;;6.53;1.92;;;14.50;99.90;;;;;;1977146;71;21056;-75
2021/11/09 13:18:09;;;;;;;7.20;2.00;;;14.50;99.90;;;;;;1993409;70;21140;-74
2021/11/09 13:20:37;;;;;;;3.75;1.90;;;15.50;99.90;;;;;;1975568;71;21142;-75
2021/11/09 13:23:03;;;;;;;2.85;1.50;;;15.30;99.90;;;;;;1990838;72;21086;-75
2021/11/09 13:25:30;;;;;;;5.12;1.77;;;15.00;99.90;;;;;;1993225;70;21313;-75
2021/11/09 13:27:56;;;;;;;6.45;1.90;;;15.20;99.90;;;;;;1983950;71;21066;-75
2021/11/09 13:30:22;;;;;;;6.30;2.10;;;15.30;99.90;;;;;;1985798;70;21234;-75
2021/11/09 13:32:48;;;;;;;7.92;1.65;;;15.20;99.90;;;;;;1967505;71;21079;-75
2021/11/09 13:35:15;;;;;;;6.15;2.08;;;15.70;99.90;;;;;;1976855;71;21131;-75
2021/11/09 13:37:41;;;;;;;3.60;1.70;;;15.10;99.90;;;;;;1971854;71;21092;-75
2021/11/09 13:40:08;;;;;;;7.62;2.05;;;14.90;99.90;;;;;;1967999;72;21154;-75
2021/11/09 13:42:34;;;;;;;4.30;1.98;;;14.90;99.90;;;;;;1974287;70;21577;-76
2021/11/09 13:45:00;;;;;;;3.92;1.75;;;15.70;99.90;;;;;;1973015;70;21107;-76
2021/11/09 13:47:27;;;;;;;5.78;2.15;;;15.40;99.90;;;;;;1982183;70;21050;-76
2021/11/09 13:49:53;;;;;;;4.37;1.85;;;15.70;99.90;;;;;;1982730;71;21241;-77
2021/11/09 13:52:19;;;;;;;4.53;1.80;;;15.50;99.90;;;;;;1967650;71;21068;-75
2021/11/09 13:54:45;;;;;;;4.00;1.50;;;15.70;99.90;;;;;;1967987;71;21059;-74
2021/11/09 13:57:14;;;;;;;5.95;1.72;;;16.00;99.90;;;;;;1993322;72;21055;-75
2021/11/09 13:59:39;;;;;;;5.30;2.02;;;15.90;99.90;;;;;;1971349;70;21143;-76
2021/11/09 14:02:18;;;;;;;3.47;1.50;;;15.70;99.90;;;;;;1972453;72;21145;-76
2021/11/09 14:07:41;;;;;;;5.80;1.77;;;15.30;99.90;;;;;;1976000;71;21487;-74
2021/11/09 14:17:50;;;;;;;4.17;1.67;;;14.80;99.90;;;;;;1979059;71;21043;-75
2021/11/09 14:20:16;;;;;;;6.08;1.60;;;14.80;99.90;;;;;;1971179;72;21072;-75
2021/11/09 14:22:43;;;;;;;4.10;1.57;;;14.80;99.90;;;;;;1973296;71;21128;-74
2021/11/09 14:25:10;;;;;;;5.22;1.90;;;14.60;99.90;;;;;;1977242;71;21048;-74
2021/11/09 14:27:38;;;;;;;3.62;1.55;;;14.80;99.90;;;;;;1972744;70;21035;-74
2021/11/09 14:30:04;;;;;;;4.62;1.50;;;14.60;99.90;;;;;;1966885;70;21201;-75
2021/11/09 14:32:32;;;;;;;12.85;1.85;;;14.40;99.90;;;;;;1982492;71;21111;-74
2021/11/09 14:34:58;;;;;;;4.60;1.72;;;13.90;99.90;;;;;;1991643;70;21485;-74
2021/11/09 14:37:37;;;;;;;6.12;1.70;;;13.80;99.90;;;;;;1993278;70;21058;-74
2021/11/09 14:39:52;;;;;;;4.80;1.40;;;14.20;99.90;;;;;;1966447;71;21161;-74
2021/11/09 14:42:27;;;;;;;5.12;2.00;;;14.10;99.90;;;;;;1983136;71;21118;-74
2021/11/09 14:44:53;;;;;;;10.00;1.92;;;14.50;99.90;;;;;;1962076;71;21141;-74
2021/11/09 14:47:19;;;;;;;4.42;1.60;;;14.70;99.90;;;;;;1972388;70;21047;-74
2021/11/09 14:49:56;;;;;;;3.72;1.52;;;14.90;99.90;;;;;;1980374;72;21089;-74
2021/11/09 14:52:13;;;;;;;5.30;1.72;;;14.40;99.90;;;;;;1974426;71;21058;-74
2021/11/09 14:54:46;;;;;;;3.77;1.45;;;14.20;99.90;;;;;;1980072;72;21078;-73
2021/11/09 14:57:07;;;;;;;4.75;1.75;;;14.70;99.90;;;;;;1961201;72;21083;-73
2021/11/09 14:59:34;;;;;;;4.85;1.77;;;14.30;99.90;;;;;;1981820;71;21024;-74
2021/11/09 15:02:04;;;;;;;4.67;2.00;;;14.50;99.90;;;;;;1961943;71;21112;-74